createdAt,value
2023-05-21T00:01:27.081Z,13.80
2023-05-21T00:03:54.089Z,13.80
2023-05-21T00:06:21.259Z,13.80
2023-05-21T00:08:48.186Z,13.80
2023-05-21T00:11:15.065Z,13.80
2023-05-21T00:13:41.980Z,13.70
2023-05-21T00:16:11.211Z,13.70
2023-05-21T00:18:39.515Z,13.60
2023-05-21T00:21:06.748Z,13.60
2023-05-21T00:23:34.157Z,13.60
2023-05-21T00:26:01.355Z,13.60
2023-05-21T00:28:28.273Z,13.50
2023-05-21T00:30:55.070Z,13.50
2023-05-21T00:33:22.551Z,13.50
2023-05-21T00:35:49.338Z,13.50
2023-05-21T00:38:18.715Z,13.50
2023-05-21T00:40:45.571Z,13.50
2023-05-21T00:43:14.388Z,13.40
2023-05-21T00:45:47.220Z,13.40
2023-05-21T00:48:14.931Z,13.40
2023-05-21T00:50:42.110Z,13.40
2023-05-21T00:53:10.063Z,13.30
2023-05-21T00:55:37.988Z,13.30
2023-05-21T00:58:05.907Z,13.30
2023-05-21T01:00:34.484Z,13.30
2023-05-21T01:03:01.851Z,13.20
2023-05-21T01:05:29.754Z,13.20
2023-05-21T01:07:58.185Z,13.20
2023-05-21T01:10:26.358Z,13.20
2023-05-21T01:12:55.063Z,13.10
2023-05-21T01:15:22.209Z,13.10
2023-05-21T01:17:49.681Z,13.00
2023-05-21T01:20:19.076Z,13.00
2023-05-21T01:22:56.769Z,13.00
2023-05-21T01:25:24.274Z,12.90
2023-05-21T01:27:51.981Z,13.00
2023-05-21T01:30:20.967Z,12.90
2023-05-21T01:32:53.700Z,12.90
2023-05-21T01:35:27.938Z,12.80
2023-05-21T01:38:19.501Z,12.80
2023-05-21T01:40:54.429Z,12.80
2023-05-21T01:43:23.771Z,12.80
2023-05-21T01:45:55.082Z,12.80
2023-05-21T01:48:27.919Z,12.70
2023-05-21T01:50:57.043Z,12.70
2023-05-21T01:53:23.999Z,12.70
2023-05-21T01:55:50.884Z,12.60
2023-05-21T01:58:18.487Z,12.60
2023-05-21T02:00:48.048Z,12.60
2023-05-21T02:03:15.277Z,12.60
2023-05-21T02:05:42.175Z,12.60
2023-05-21T02:08:09.574Z,12.60
2023-05-21T02:10:36.810Z,12.60
2023-05-21T02:13:04.026Z,12.60
2023-05-21T02:15:30.848Z,12.50
2023-05-21T02:17:58.445Z,12.50
2023-05-21T02:20:25.546Z,12.50
2023-05-21T02:22:52.350Z,12.50
2023-05-21T02:25:22.433Z,12.50
2023-05-21T02:27:53.753Z,12.50
2023-05-21T02:30:21.074Z,12.50
2023-05-21T02:32:48.916Z,12.50
2023-05-21T02:35:16.266Z,12.40
2023-05-21T02:37:45.978Z,12.50
2023-05-21T02:40:13.053Z,12.50
2023-05-21T02:42:41.485Z,12.40
2023-05-21T02:45:09.781Z,12.40
2023-05-21T02:47:36.708Z,12.40
2023-05-21T02:50:03.759Z,12.40
2023-05-21T02:52:30.748Z,12.30
2023-05-21T02:54:57.564Z,12.30
2023-05-21T02:57:24.405Z,12.30
2023-05-21T02:59:51.327Z,12.30
2023-05-21T03:02:18.169Z,12.20
2023-05-21T03:04:47.921Z,12.20
2023-05-21T03:07:15.927Z,12.20
2023-05-21T03:09:42.950Z,12.20
2023-05-21T03:12:10.735Z,12.20
2023-05-21T03:14:37.961Z,12.20
2023-05-21T03:17:06.326Z,12.20
2023-05-21T03:19:35.916Z,12.20
2023-05-21T03:22:03.995Z,12.10
2023-05-21T03:24:31.780Z,12.10
2023-05-21T03:27:01.638Z,12.10
2023-05-21T03:29:28.977Z,12.10
2023-05-21T03:31:56.160Z,12.10
2023-05-21T03:34:24.053Z,12.00
2023-05-21T03:36:51.186Z,12.00
2023-05-21T03:39:18.392Z,12.00
2023-05-21T03:41:45.429Z,12.00
2023-05-21T03:44:12.293Z,12.00
2023-05-21T03:46:39.254Z,11.90
2023-05-21T03:49:06.232Z,11.90
2023-05-21T03:51:33.258Z,11.90
2023-05-21T03:54:01.355Z,11.90
2023-05-21T03:56:28.294Z,11.90
2023-05-21T03:58:55.149Z,11.90
2023-05-21T04:01:22.160Z,11.80
2023-05-21T04:03:49.115Z,11.90
2023-05-21T04:06:17.041Z,11.80
2023-05-21T04:08:44.568Z,11.90
2023-05-21T04:11:11.363Z,11.90
2023-05-21T04:13:38.834Z,11.80
2023-05-21T04:16:09.021Z,11.90
2023-05-21T04:18:36.077Z,11.90
2023-05-21T04:21:02.941Z,11.90
2023-05-21T04:23:29.802Z,11.90
2023-05-21T04:25:56.617Z,11.90
2023-05-21T04:28:24.238Z,12.00
2023-05-21T04:30:51.161Z,12.00
2023-05-21T04:33:18.550Z,12.10
2023-05-21T04:35:50.208Z,12.10
2023-05-21T04:38:21.128Z,12.10
2023-05-21T04:40:52.868Z,12.20
2023-05-21T04:43:26.437Z,12.20
2023-05-21T04:45:55.037Z,12.30
2023-05-21T04:48:26.906Z,12.30
2023-05-21T04:50:54.136Z,12.40
2023-05-21T04:53:20.992Z,12.40
2023-05-21T04:55:48.114Z,12.50
2023-05-21T04:58:17.872Z,12.60
2023-05-21T05:00:47.016Z,12.60
2023-05-21T05:03:14.546Z,12.60
2023-05-21T05:05:42.124Z,12.70
2023-05-21T05:08:09.003Z,12.70
2023-05-21T05:10:36.314Z,12.70
2023-05-21T05:13:03.202Z,12.80
2023-05-21T05:38:56.496Z,13.30
2023-05-21T05:41:23.436Z,13.40
2023-05-21T05:43:50.415Z,13.40
2023-05-21T05:46:17.385Z,13.50
2023-05-21T05:48:44.301Z,13.60
2023-05-21T05:51:12.106Z,13.70
2023-05-21T05:53:39.052Z,13.70
2023-05-21T05:56:06.376Z,13.80
2023-05-21T05:58:33.210Z,13.90
2023-05-21T06:01:00.117Z,14.00
2023-05-21T06:03:28.506Z,14.00
2023-05-21T06:05:55.820Z,14.10
2023-05-21T06:08:23.634Z,14.10
2023-05-21T06:10:51.352Z,14.20
2023-05-21T06:13:18.662Z,14.20
2023-05-21T06:31:19.098Z,14.80
2023-05-21T06:39:58.788Z,15.20
2023-05-21T06:42:45.883Z,15.40
2023-05-21T06:45:12.923Z,15.50
2023-05-21T06:47:39.912Z,15.60
2023-05-21T06:50:06.936Z,15.80
2023-05-21T06:52:33.775Z,16.00
2023-05-21T06:55:00.905Z,16.00
2023-05-21T06:57:27.765Z,16.10
2023-05-21T06:59:54.604Z,16.10
2023-05-21T07:02:21.547Z,16.10
2023-05-21T07:04:48.533Z,16.20
2023-05-21T07:07:15.440Z,16.30
2023-05-21T07:09:42.461Z,16.40
2023-05-21T07:12:09.542Z,16.40
2023-05-21T07:14:36.415Z,16.40
2023-05-21T07:17:03.414Z,16.60
2023-05-21T07:19:30.376Z,16.70
2023-05-21T07:21:57.881Z,16.70
2023-05-21T07:24:27.612Z,16.80
2023-05-21T07:26:54.607Z,17.00
2023-05-21T07:29:21.552Z,17.10
2023-05-21T07:31:48.352Z,17.10
2023-05-21T07:34:15.809Z,17.20
2023-05-21T07:36:42.642Z,17.30
2023-05-21T07:39:10.704Z,17.20
2023-05-21T07:41:37.639Z,17.30
2023-05-21T07:44:04.733Z,17.40
2023-05-21T07:46:31.696Z,17.40
2023-05-21T07:48:58.549Z,17.50
2023-05-21T07:51:26.069Z,17.60
2023-05-21T07:53:55.142Z,17.70
2023-05-21T07:56:22.888Z,17.80
2023-05-21T07:58:49.702Z,18.00
2023-05-21T08:01:17.363Z,17.90
2023-05-21T08:03:44.461Z,17.70
2023-05-21T08:06:11.520Z,17.70
2023-05-21T08:08:38.416Z,17.80
2023-05-21T08:11:05.319Z,17.90
2023-05-21T08:13:32.248Z,17.80
2023-05-21T08:15:59.155Z,18.00
2023-05-21T08:18:26.080Z,18.20
2023-05-21T08:20:53.008Z,18.50
2023-05-21T08:23:20.024Z,18.70
2023-05-21T08:25:46.919Z,18.90
2023-05-21T08:28:13.839Z,19.20
2023-05-21T08:30:41.314Z,19.50
2023-05-21T08:33:08.233Z,19.80
2023-05-21T08:35:35.290Z,20.00
2023-05-21T08:38:02.508Z,20.10
2023-05-21T08:40:34.885Z,20.10
2023-05-21T08:43:26.907Z,20.20
2023-05-21T08:52:12.733Z,20.40
2023-05-21T08:54:40.327Z,20.20
2023-05-21T08:57:11.039Z,20.30
2023-05-21T09:06:01.631Z,21.00
2023-05-21T09:08:46.430Z,21.20
2023-05-21T09:14:21.933Z,21.50
2023-05-21T09:19:33.657Z,22.00
2023-05-21T09:22:25.388Z,22.10
2023-05-21T09:36:22.153Z,23.30
2023-05-21T09:38:53.938Z,23.50
2023-05-21T09:41:30.958Z,23.60
2023-05-21T09:44:04.558Z,24.00
2023-05-21T09:46:41.717Z,24.10
2023-05-21T09:49:23.928Z,24.30
2023-05-21T09:51:55.230Z,24.20
2023-05-21T09:54:22.614Z,24.30
2023-05-21T09:56:51.128Z,24.60
2023-05-21T10:03:14.734Z,25.00
2023-05-21T10:05:43.904Z,25.60
2023-05-21T10:08:12.439Z,25.50
2023-05-21T10:10:43.006Z,25.80
2023-05-21T10:13:12.638Z,25.50
2023-05-21T10:15:44.264Z,25.00
2023-05-21T10:18:18.305Z,24.80
2023-05-21T10:20:46.492Z,24.90
2023-05-21T10:23:14.061Z,25.00
2023-05-21T10:25:41.958Z,24.80
2023-05-21T10:28:08.941Z,24.80
2023-05-21T10:30:37.416Z,25.10
2023-05-21T10:33:05.478Z,25.20
2023-05-21T10:35:33.881Z,25.20
2023-05-21T10:38:04.649Z,25.50
2023-05-21T10:40:31.582Z,25.70
2023-05-21T10:43:36.415Z,25.90
2023-05-21T10:50:08.220Z,25.70
2023-05-21T10:57:05.285Z,25.00
2023-05-21T11:00:12.812Z,25.10
2023-05-21T11:13:54.865Z,24.80
2023-05-21T11:24:06.646Z,24.50
2023-05-21T11:26:58.661Z,24.90
2023-05-21T11:29:55.749Z,24.90
2023-05-21T11:32:24.240Z,24.80
2023-05-21T11:34:51.726Z,24.80
2023-05-21T11:37:18.713Z,25.00
2023-05-21T11:39:45.767Z,25.00
2023-05-21T11:42:13.200Z,24.70
2023-05-21T11:44:48.338Z,24.70
2023-05-21T11:47:18.645Z,24.90
2023-05-21T11:49:46.460Z,25.00
2023-05-21T11:52:14.307Z,25.30
2023-05-21T11:54:48.612Z,25.60
2023-05-21T11:57:17.382Z,25.60
2023-05-21T11:59:47.568Z,25.90
2023-05-21T12:02:19.041Z,26.20
2023-05-21T12:04:48.614Z,25.90
2023-05-21T12:07:17.688Z,25.80
2023-05-21T12:09:49.217Z,25.90
2023-05-21T12:12:17.802Z,25.70
2023-05-21T12:14:47.694Z,25.70
2023-05-21T12:17:19.838Z,25.60
2023-05-21T12:19:47.861Z,25.50
2023-05-21T12:22:16.590Z,25.60
2023-05-21T12:24:44.329Z,25.80
2023-05-21T12:27:13.281Z,25.80
2023-05-21T12:29:42.554Z,25.80
2023-05-21T12:32:14.287Z,25.90
2023-05-21T12:34:49.772Z,26.00
2023-05-21T12:37:19.397Z,26.00
2023-05-21T12:39:48.266Z,25.80
2023-05-21T12:42:15.767Z,26.00
2023-05-21T12:44:47.125Z,26.10
2023-05-21T12:47:14.557Z,26.50
2023-05-21T12:49:43.062Z,26.70
2023-05-21T12:52:11.966Z,26.90
2023-05-21T12:54:45.557Z,26.90
2023-05-21T12:57:16.654Z,27.00
2023-05-21T12:59:50.354Z,27.20
2023-05-21T13:02:25.224Z,27.20
2023-05-21T13:05:15.320Z,27.00
2023-05-21T13:07:43.956Z,27.00
2023-05-21T13:10:12.255Z,26.80
2023-05-21T13:12:40.352Z,27.00
2023-05-21T13:15:08.722Z,27.30
2023-05-21T13:17:35.627Z,27.30
2023-05-21T13:20:20.083Z,27.20
2023-05-21T13:22:52.272Z,27.30
2023-05-21T13:25:24.572Z,27.30
2023-05-21T13:27:53.072Z,27.00
2023-05-21T13:30:20.706Z,27.10
2023-05-21T13:32:48.817Z,27.10
2023-05-21T13:35:16.843Z,27.30
2023-05-21T13:37:45.074Z,27.50
2023-05-21T13:40:15.340Z,27.60
2023-05-21T13:42:46.909Z,27.40
2023-05-21T13:45:14.591Z,27.40
2023-05-21T13:47:42.520Z,27.10
2023-05-21T13:50:10.080Z,27.00
2023-05-21T13:52:38.264Z,27.00
2023-05-21T13:55:05.961Z,27.20
2023-05-21T13:57:33.195Z,27.20
2023-05-21T14:00:00.351Z,27.30
2023-05-21T14:02:27.400Z,27.20
2023-05-21T14:04:54.358Z,27.10
2023-05-21T14:07:22.121Z,27.20
2023-05-21T14:09:49.129Z,27.30
2023-05-21T14:12:16.927Z,27.20
2023-05-21T14:14:44.946Z,27.30
2023-05-21T14:17:11.999Z,27.30
2023-05-21T14:19:38.817Z,27.20
2023-05-21T14:22:05.736Z,27.20
2023-05-21T14:24:32.587Z,27.30
2023-05-21T14:26:59.704Z,27.40
2023-05-21T14:29:26.452Z,27.50
2023-05-21T14:31:53.307Z,27.70
2023-05-21T14:34:20.124Z,27.80
2023-05-21T14:36:46.999Z,28.00
2023-05-21T14:39:13.820Z,28.30
2023-05-21T14:41:40.894Z,28.20
2023-05-21T14:44:08.261Z,28.30
2023-05-21T14:46:35.424Z,28.40
2023-05-21T14:49:03.744Z,28.40
2023-05-21T14:51:31.660Z,28.40
2023-05-21T14:53:58.657Z,28.50
2023-05-21T14:56:27.692Z,28.40
2023-05-21T14:58:54.948Z,28.30
2023-05-21T15:01:21.885Z,28.50
2023-05-21T15:03:49.088Z,28.20
2023-05-21T15:06:16.079Z,28.20
2023-05-21T15:08:42.891Z,27.50
2023-05-21T15:11:10.111Z,27.30
2023-05-21T15:13:37.014Z,27.20
2023-05-21T15:16:04.232Z,27.10
2023-05-21T15:18:31.111Z,26.80
2023-05-21T15:20:58.617Z,26.70
2023-05-21T15:23:25.537Z,26.70
2023-05-21T15:25:52.372Z,26.80
2023-05-21T15:28:19.590Z,26.90
2023-05-21T15:30:46.406Z,26.70
2023-05-21T15:33:13.220Z,26.70
2023-05-21T15:35:41.184Z,26.80
2023-05-21T15:38:08.305Z,26.40
2023-05-21T15:40:35.139Z,26.60
2023-05-21T15:43:01.985Z,26.60
2023-05-21T15:45:28.815Z,26.60
2023-05-21T15:47:56.040Z,26.60
2023-05-21T15:50:22.996Z,26.50
2023-05-21T15:52:52.302Z,26.60
2023-05-21T15:55:20.465Z,26.60
2023-05-21T15:57:47.276Z,26.60
2023-05-21T16:00:14.474Z,26.70
2023-05-21T16:02:42.022Z,26.60
2023-05-21T16:05:09.482Z,26.40
2023-05-21T16:07:37.960Z,26.20
2023-05-21T16:10:06.248Z,26.40
2023-05-21T16:12:33.055Z,26.20
2023-05-21T16:14:59.798Z,26.20
2023-05-21T16:17:26.678Z,26.10
2023-05-21T16:19:53.460Z,26.10
2023-05-21T16:22:23.937Z,25.90
2023-05-21T16:24:50.787Z,25.80
2023-05-21T16:27:17.650Z,25.60
2023-05-21T16:29:44.597Z,25.50
2023-05-21T16:32:13.836Z,25.60
2023-05-21T16:34:41.175Z,25.50
2023-05-21T16:37:09.717Z,25.20
2023-05-21T16:39:36.852Z,24.80
2023-05-21T16:42:03.957Z,24.70
2023-05-21T16:44:32.062Z,24.40
2023-05-21T16:46:59.571Z,24.30
2023-05-21T16:49:27.406Z,24.20
2023-05-21T16:51:54.336Z,24.00
2023-05-21T16:54:21.460Z,24.00
2023-05-21T16:56:48.325Z,23.90
2023-05-21T16:59:15.149Z,23.90
2023-05-21T17:01:42.775Z,23.90
2023-05-21T17:04:09.747Z,24.00
2023-05-21T17:06:36.549Z,24.00
2023-05-21T17:09:03.961Z,23.90
2023-05-21T17:11:31.078Z,23.90
2023-05-21T17:13:57.895Z,23.70
2023-05-21T17:16:25.170Z,23.70
2023-05-21T17:18:52.117Z,23.60
2023-05-21T17:21:19.449Z,23.50
2023-05-21T17:23:46.363Z,23.40
2023-05-21T17:26:13.999Z,23.30
2023-05-21T17:28:40.859Z,23.20
2023-05-21T17:31:08.903Z,23.10
2023-05-21T17:33:37.315Z,23.00
2023-05-21T17:36:04.353Z,22.90
2023-05-21T17:38:31.212Z,22.80
2023-05-21T17:40:59.064Z,22.70
2023-05-21T17:43:31.816Z,22.60
2023-05-21T17:45:58.721Z,22.50
2023-05-21T17:48:26.068Z,22.40
2023-05-21T17:50:52.993Z,22.20
2023-05-21T17:53:19.804Z,22.20
2023-05-21T17:55:46.711Z,22.10
2023-05-21T17:58:13.502Z,22.00
2023-05-21T18:00:40.571Z,21.90
2023-05-21T18:03:07.463Z,21.80
2023-05-21T18:05:34.792Z,21.80
2023-05-21T18:08:02.880Z,21.70
2023-05-21T18:10:29.917Z,21.60
2023-05-21T18:12:56.980Z,21.50
2023-05-21T18:15:23.763Z,21.40
2023-05-21T18:17:50.642Z,21.30
2023-05-21T18:20:17.724Z,21.20
2023-05-21T18:22:44.958Z,21.10
2023-05-21T18:25:11.935Z,21.00
2023-05-21T18:27:38.747Z,20.90
2023-05-21T18:30:06.906Z,20.80
2023-05-21T18:32:34.319Z,20.80
2023-05-21T18:35:01.161Z,20.70
2023-05-21T18:37:29.260Z,20.60
2023-05-21T18:39:56.063Z,20.50
2023-05-21T18:42:22.873Z,20.50
2023-05-21T18:44:52.447Z,20.40
2023-05-21T18:47:19.318Z,20.20
2023-05-21T18:49:46.108Z,20.10
2023-05-21T18:52:14.867Z,20.00
2023-05-21T18:54:41.669Z,19.90
2023-05-21T18:57:08.460Z,19.80
2023-05-21T18:59:35.383Z,19.70
2023-05-21T19:02:03.981Z,19.60
2023-05-21T19:04:31.010Z,19.50
2023-05-21T19:06:58.046Z,19.50
2023-05-21T19:09:24.819Z,19.40
2023-05-21T19:11:51.776Z,19.30
2023-05-21T19:14:21.803Z,19.20
2023-05-21T19:16:48.656Z,19.20
2023-05-21T19:19:15.579Z,19.10
2023-05-21T19:21:42.445Z,19.00
2023-05-21T19:24:09.459Z,19.00
2023-05-21T19:26:36.228Z,18.90
2023-05-21T19:31:40.453Z,18.80
2023-05-21T19:34:10.801Z,18.70
2023-05-21T19:36:51.510Z,18.60
2023-05-21T19:39:19.611Z,18.60
2023-05-21T19:41:46.585Z,18.40
2023-05-21T19:44:13.577Z,18.40
2023-05-21T19:46:40.421Z,18.30
2023-05-21T19:49:07.455Z,18.30
2023-05-21T19:51:39.467Z,18.30
2023-05-21T19:54:10.739Z,18.20
2023-05-21T20:06:23.998Z,18.10
2023-05-21T20:08:53.169Z,18.00
2023-05-21T21:09:08.650Z,17.00
2023-05-21T21:11:35.728Z,16.90
2023-05-21T21:14:03.348Z,16.90
2023-05-21T21:16:30.287Z,16.90
2023-05-21T21:18:57.299Z,16.80
2023-05-21T21:25:14.614Z,16.70
2023-05-21T22:17:14.073Z,16.10
2023-05-21T22:19:56.254Z,16.00
2023-05-21T22:22:23.419Z,16.00
2023-05-21T22:24:50.464Z,15.90
2023-05-21T22:27:17.400Z,15.80
2023-05-21T22:29:47.394Z,15.70
2023-05-21T22:32:14.305Z,15.70
2023-05-21T22:34:42.011Z,15.60
2023-05-21T22:37:09.068Z,15.50
2023-05-21T22:39:54.872Z,15.40
2023-05-21T22:42:21.796Z,15.30
2023-05-21T22:45:16.858Z,15.30
2023-05-21T22:47:43.812Z,15.20
2023-05-21T22:50:11.121Z,15.10
2023-05-21T22:52:38.385Z,15.00
2023-05-21T22:55:46.074Z,15.00
2023-05-21T23:05:48.070Z,14.80
2023-05-21T23:08:14.970Z,14.70
2023-05-21T23:10:42.070Z,14.70
2023-05-21T23:13:08.922Z,14.70
2023-05-21T23:15:38.933Z,14.60
2023-05-21T23:18:07.629Z,14.50
2023-05-21T23:20:34.718Z,14.50
2023-05-21T23:23:01.563Z,14.40
2023-05-21T23:25:28.439Z,14.40
2023-05-21T23:27:55.640Z,14.30
2023-05-21T23:30:22.512Z,14.20
2023-05-21T23:32:50.739Z,14.20
2023-05-21T23:35:17.682Z,14.10
2023-05-21T23:37:44.504Z,14.10
2023-05-21T23:40:12.153Z,14.00
2023-05-21T23:42:39.087Z,14.00
2023-05-21T23:45:06.503Z,14.00
2023-05-21T23:47:33.367Z,13.90
2023-05-21T23:50:00.355Z,13.80
2023-05-21T23:52:27.222Z,13.80
2023-05-21T23:54:54.449Z,13.80
2023-05-21T23:57:21.307Z,13.70
2023-05-21T23:59:48.111Z,13.70
